Lewisburg, Ohio
Current Conditions -  °F | °C
As of 7:56 PM on Monday 26 Jan 2015 (Local Time) from KDAY Reporting Station
Broken Clouds Broken Clouds  
Wind Chill: 14°   Ceiling: 12000
Heat Index: 14°   Visibility: 8mi
Dew Point:   Wind: 0mph
Humidity: 80%   Direction: NA
Pressure: 29.94"   Gusts: NA
Location:  39.85°N, 84.54°W
Report Text: KDAY 270056Z 00000KT 8SM BKN120 M10/M13 A2994 RMK AO2 SLP155 T11001128
Loading
Personal Weather Stations






























Interactive Weather Map New forecast layout! Learn more

10-Day Weather Forecast

Advertisements
Track Severe Weather on mobile